Thalassa — FNFP — position and weather

sailwx.info

Track history (hours):
 
Tides and Currents Weather Stations Pressure Air Temp Water Temp Dewpoint Dewpoint Depression Visibility Wind Speed Wind Dir Waves Ship Positions

Oceanographic research ship Thalassa (France & Spain)

Detailed information on ship capabilities available from University of Delaware's Ocean Information Center.

Last reported at 2017-Jan-23 10:32 UTC. Time now 2017-Jan-23 10:42 UTC.
Position N 50°51' E 001°20'.

Length 74 m; beam 15 m.

Type: Ship. MMSI: 227297000.

Date/timePositionNaut miles runAvg speedWind from/ knotsBaromVisibWave heightAir tempDewpointWater temp
2017-Jan-23 10:32N 50°51' E 001°20'5 4.0
2017-Jan-23 09:19N 50°46' E 001°23'9 5.0
2017-Jan-23 07:28N 50°38' E 001°28'1 1.4
2017-Jan-23 06:33N 50°37' E 001°27'1 0.6
2017-Jan-23 05:26N 50°37' E 001°25'0 0.4
2017-Jan-23 04:33N 50°37' E 001°26'2 1.5
2017-Jan-23 03:25N 50°38' E 001°28'2 1.3
2017-Jan-23 01:25N 50°39' E 001°24'10 4.7
2017-Jan-22 23:21N 50°44' E 001°11'5 6.6
2017-Jan-22 22:33N 50°42' E 001°04'6 5.2
2017-Jan-22 21:23N 50°39' E 000°56'3 3.5
2017-Jan-22 20:33N 50°38' E 000°52'1311.8
2017-Jan-22 19:28N 50°32' E 000°34'1111.9
2017-Jan-22 18:33N 50°27' E 000°19'9 9.4
2017-Jan-22 17:33N 50°23' E 000°05'1 1.3
2017-Jan-22 16:33N 50°22' E 000°04'2 2.0
2017-Jan-22 15:33N 50°21' E 000°01'0 0.5
2017-Jan-22 14:33N 50°21' E 000°00'1010.0
2017-Jan-22 13:33N 50°31' E 000°02'7 7.0
2017-Jan-22 12:33N 50°38' E 000°06'3 2.6
2017-Jan-22 11:33N 50°37' E 000°10'8 7.6
2017-Jan-22 10:34N 50°32' E 000°19'2 2.4
2017-Jan-22 09:33N 50°33' E 000°22'15 7.1
2017-Jan-22 07:25N 50°34' E 000°46'2 2.3
2017-Jan-22 06:29N 50°34' E 000°43'1 1.0
2017-Jan-22 05:33N 50°34' E 000°41'7 5.4
2017-Jan-22 04:14N 50°31' E 000°31'6 7.4
2017-Jan-22 03:27N 50°28' E 000°23'1 1.1
2017-Jan-22 02:16N 50°27' E 000°22'14 7.0
2017-Jan-22 00:15N 50°12' E 000°20'2 2.2
2017-Jan-21 23:30N 50°11' E 000°20'7 6.4
2017-Jan-21 22:26N 50°04' E 000°19'6 6.8
2017-Jan-21 21:33N 49°58' E 000°18'5 4.7
2017-Jan-21 20:30N 49°53' E 000°17'4 4.0
2017-Jan-21 19:33N 49°56' E 000°21'1 0.3
2017-Jan-21 14:06N 49°57' E 000°19'712.9
2017-Jan-21 13:33N 49°52' E 000°11'1 1.1
2017-Jan-21 12:33N 49°51' E 000°11'10 8.1
2017-Jan-21 11:17N 49°53' E 000°26'3 3.9
2017-Jan-21 10:33N 49°52' E 000°22'69 2.5
2017-Jan-20 07:20N 50°44' E 001°33'1 1.3
2017-Jan-20 06:23N 50°43' E 001°34'58 1.4
2017-Jan-18 11:22N 50°19' E 000°11'1012.1
2017-Jan-18 10:33N 50°17' W 000°04'4110.2
2017-Jan-18 06:33N 50°06' W 001°06'8 8.4
2017-Jan-18 05:33N 50°04' W 001°18'8 8.3
2017-Jan-18 04:33N 50°02' W 001°31'9 9.3
2017-Jan-18 03:33N 49°60' W 001°45'1110.7
2017-Jan-18 02:33N 49°57' W 002°01'2512.7
2017-Jan-18 00:34N 49°50' W 002°39'1912.7
2017-Jan-17 23:03N 49°42' W 003°06'2112.8
2017-Jan-17 21:24N 49°28' W 003°29'5112.4
2017-Jan-17 17:19N 48°52' W 004°24'2 2.8
2017-Jan-17 16:33N 48°54' W 004°25'2 2.3
2017-Jan-17 15:33N 48°54' W 004°29'0 0.2
2017-Jan-17 14:33N 48°54' W 004°29'8 8.0
2017-Jan-17 13:33N 48°47' W 004°32'10 9.6
2017-Jan-17 12:34N 48°40' W 004°43'10 9.8
2017-Jan-17 11:34N 48°31' W 004°50'1010.2
2017-Jan-17 10:34N 48°21' W 004°49'10 9.7
2017-Jan-17 09:34N 48°21' W 004°34'4 4.2
2017-Jan-17 08:33N 48°23' W 004°29'0 0.0
2017-Jan-17 07:33N 48°23' W 004°29'0 0.0
2017-Jan-17 06:33N 48°23' W 004°29'0 0.0
2017-Jan-17 05:33N 48°23' W 004°29'0 0.0
2017-Jan-17 04:33N 48°23' W 004°29'0 0.0
2017-Jan-17 03:33N 48°23' W 004°29'0 0.0
2017-Jan-17 02:33N 48°23' W 004°29'0 0.0
2017-Jan-17 01:33N 48°23' W 004°29'0 0.0
2017-Jan-17 00:33N 48°23' W 004°29'0 0.0
2017-Jan-16 23:33N 48°23' W 004°29'0 0.0
2017-Jan-16 22:33N 48°23' W 004°29'0 0.0
2017-Jan-16 21:33N 48°23' W 004°29'0 0.0
2017-Jan-16 20:33N 48°23' W 004°29'0 0.0
2017-Jan-16 19:33N 48°23' W 004°29'0 0.0
2017-Jan-16 18:33N 48°23' W 004°29'0 0.0
2017-Jan-16 17:33N 48°23' W 004°29'0 0.0
2017-Jan-16 16:33N 48°23' W 004°29'0 0.0
2017-Jan-16 15:33N 48°23' W 004°29'0 0.0
2017-Jan-16 14:33N 48°23' W 004°29'0 0.0
2017-Jan-16 13:33N 48°23' W 004°29'0 0.0
2017-Jan-16 12:33N 48°23' W 004°29'0 0.0
2017-Jan-16 11:33N 48°23' W 004°29'0 0.0
2017-Jan-16 10:32N 48°23' W 004°29'0 0.0
2017-Jan-16 09:33N 48°23' W 004°29'0 0.0
2017-Jan-16 08:32N 48°23' W 004°29'0 0.0
2017-Jan-16 07:33N 48°23' W 004°29'0 0.0
2017-Jan-16 06:32N 48°23' W 004°29'0 0.0
2017-Jan-16 05:32N 48°23' W 004°29'0 0.0
2017-Jan-16 04:32N 48°23' W 004°29'0 0.0
2017-Jan-16 03:32N 48°23' W 004°29'0 0.0
2017-Jan-16 02:32N 48°23' W 004°29'0 0.0
2017-Jan-16 01:32N 48°23' W 004°29'0 0.0
2017-Jan-16 00:32N 48°23' W 004°29'0 0.0
2017-Jan-15 23:32N 48°23' W 004°29'0 0.0
2017-Jan-15 22:32N 48°23' W 004°29'0 0.0
2017-Jan-15 21:32N 48°23' W 004°29'0 0.0
2017-Jan-15 20:32N 48°23' W 004°29'0 0.0
2017-Jan-15 19:32N 48°23' W 004°29'0 0.0
2017-Jan-15 18:32N 48°23' W 004°29'0 0.0
2017-Jan-15 17:32N 48°23' W 004°29'0 0.0
2017-Jan-15 16:32N 48°23' W 004°29'0 0.0
2017-Jan-15 15:32N 48°23' W 004°29'0 0.0
2017-Jan-15 14:32N 48°23' W 004°29'0 0.0
2017-Jan-15 13:32N 48°23' W 004°29'0 0.0
2017-Jan-15 12:32N 48°23' W 004°29'0 0.0
2017-Jan-15 11:32N 48°23' W 004°29'0 0.0
2017-Jan-15 10:32N 48°23' W 004°29'0 0.0
2017-Jan-15 09:32N 48°23' W 004°29'0 0.0
2017-Jan-15 08:32N 48°23' W 004°29'0 0.0
2017-Jan-15 07:32N 48°23' W 004°29'0 0.0
2017-Jan-15 06:32N 48°23' W 004°29'0 0.0
2017-Jan-15 05:32N 48°23' W 004°29'0 0.0
2017-Jan-15 04:32N 48°23' W 004°29'0 0.0
2017-Jan-15 03:32N 48°23' W 004°29'0 0.0
2017-Jan-15 02:32N 48°23' W 004°29'0 0.0
2017-Jan-15 01:32N 48°23' W 004°29'0 0.0
2017-Jan-15 00:32N 48°23' W 004°29'0 0.0
2017-Jan-14 23:32N 48°23' W 004°29'0 0.0
2017-Jan-14 22:32N 48°23' W 004°29'0 0.0
2017-Jan-14 21:32N 48°23' W 004°29'0 0.0
2017-Jan-14 20:32N 48°23' W 004°29'0 0.0
2017-Jan-14 19:32N 48°23' W 004°29'0 0.0
2017-Jan-14 18:32N 48°23' W 004°29'0 0.0
2017-Jan-14 17:32N 48°23' W 004°29'0 0.0
2017-Jan-14 16:32N 48°23' W 004°29'0 0.0
2017-Jan-14 15:32N 48°23' W 004°29'0 0.0
2017-Jan-14 14:32N 48°23' W 004°29'0 0.0
2017-Jan-14 13:32N 48°23' W 004°29'0 0.0
2017-Jan-14 12:32N 48°23' W 004°29'0 0.0
2017-Jan-14 11:32N 48°23' W 004°29'0 0.0
2017-Jan-14 10:32N 48°23' W 004°29'0 0.0
2017-Jan-14 09:32N 48°23' W 004°29'0 0.0
2017-Jan-14 08:32N 48°23' W 004°29'0 0.0
2017-Jan-14 07:32N 48°23' W 004°29'0 0.0
2017-Jan-14 06:32N 48°23' W 004°29'0 0.0
2017-Jan-14 05:32N 48°23' W 004°29'0 0.0
2017-Jan-14 04:32N 48°23' W 004°29'0 0.0
2017-Jan-14 03:32N 48°23' W 004°29'0 0.0
2017-Jan-13 23:32N 48°23' W 004°29'0 0.0
2017-Jan-13 22:32N 48°23' W 004°29'0 0.0
2017-Jan-13 21:32N 48°23' W 004°29'0 0.0
2017-Jan-13 20:32N 48°23' W 004°29'0 0.0
2017-Jan-13 19:32N 48°23' W 004°29'0 0.0
2017-Jan-13 18:32N 48°23' W 004°29'0 0.0
2017-Jan-13 17:32N 48°23' W 004°29'0 0.0
2017-Jan-13 16:32N 48°23' W 004°29'0 0.0
2017-Jan-13 15:32N 48°23' W 004°29'0 0.0
2017-Jan-13 14:32N 48°23' W 004°29'0 0.0
2017-Jan-13 13:32N 48°23' W 004°29'  
Track history (hours):
 
Tides and Currents Weather Stations Pressure Air Temp Water Temp Dewpoint Dewpoint Depression Visibility Wind Speed Wind Dir Waves Ship Positions

Oceanographic research ship Thalassa (France & Spain)

Detailed information on ship capabilities available from University of Delaware's Ocean Information Center.

Last reported at 2017-Jan-23 10:32 UTC. Time now 2017-Jan-23 10:42 UTC.
Position N 50°51' E 001°20'.

Length 74 m; beam 15 m.

Type: Ship. MMSI: 227297000.

Date/timePositionNaut miles runAvg speedWind from/ knotsBaromVisibWave heightAir tempDewpointWater temp
2017-Jan-23 10:32N 50°51' E 001°20'5 4.0
2017-Jan-23 09:19N 50°46' E 001°23'9 5.0
2017-Jan-23 07:28N 50°38' E 001°28'1 1.4
2017-Jan-23 06:33N 50°37' E 001°27'1 0.6
2017-Jan-23 05:26N 50°37' E 001°25'0 0.4
2017-Jan-23 04:33N 50°37' E 001°26'2 1.5
2017-Jan-23 03:25N 50°38' E 001°28'2 1.3
2017-Jan-23 01:25N 50°39' E 001°24'10 4.7
2017-Jan-22 23:21N 50°44' E 001°11'5 6.6
2017-Jan-22 22:33N 50°42' E 001°04'6 5.2
2017-Jan-22 21:23N 50°39' E 000°56'3 3.5
2017-Jan-22 20:33N 50°38' E 000°52'1311.8
2017-Jan-22 19:28N 50°32' E 000°34'1111.9
2017-Jan-22 18:33N 50°27' E 000°19'9 9.4
2017-Jan-22 17:33N 50°23' E 000°05'1 1.3
2017-Jan-22 16:33N 50°22' E 000°04'2 2.0
2017-Jan-22 15:33N 50°21' E 000°01'0 0.5
2017-Jan-22 14:33N 50°21' E 000°00'1010.0
2017-Jan-22 13:33N 50°31' E 000°02'7 7.0
2017-Jan-22 12:33N 50°38' E 000°06'3 2.6
2017-Jan-22 11:33N 50°37' E 000°10'8 7.6
2017-Jan-22 10:34N 50°32' E 000°19'2 2.4
2017-Jan-22 09:33N 50°33' E 000°22'15 7.1
2017-Jan-22 07:25N 50°34' E 000°46'2 2.3
2017-Jan-22 06:29N 50°34' E 000°43'1 1.0
2017-Jan-22 05:33N 50°34' E 000°41'7 5.4
2017-Jan-22 04:14N 50°31' E 000°31'6 7.4
2017-Jan-22 03:27N 50°28' E 000°23'1 1.1
2017-Jan-22 02:16N 50°27' E 000°22'14 7.0
2017-Jan-22 00:15N 50°12' E 000°20'2 2.2
2017-Jan-21 23:30N 50°11' E 000°20'7 6.4
2017-Jan-21 22:26N 50°04' E 000°19'6 6.8
2017-Jan-21 21:33N 49°58' E 000°18'5 4.7
2017-Jan-21 20:30N 49°53' E 000°17'4 4.0
2017-Jan-21 19:33N 49°56' E 000°21'1 0.3
2017-Jan-21 14:06N 49°57' E 000°19'712.9
2017-Jan-21 13:33N 49°52' E 000°11'1 1.1
2017-Jan-21 12:33N 49°51' E 000°11'10 8.1
2017-Jan-21 11:17N 49°53' E 000°26'3 3.9
2017-Jan-21 10:33N 49°52' E 000°22'69 2.5
2017-Jan-20 07:20N 50°44' E 001°33'1 1.3
2017-Jan-20 06:23N 50°43' E 001°34'58 1.4
2017-Jan-18 11:22N 50°19' E 000°11'1012.1
2017-Jan-18 10:33N 50°17' W 000°04'4110.2
2017-Jan-18 06:33N 50°06' W 001°06'8 8.4
2017-Jan-18 05:33N 50°04' W 001°18'8 8.3
2017-Jan-18 04:33N 50°02' W 001°31'9 9.3
2017-Jan-18 03:33N 49°60' W 001°45'1110.7
2017-Jan-18 02:33N 49°57' W 002°01'2512.7
2017-Jan-18 00:34N 49°50' W 002°39'1912.7
2017-Jan-17 23:03N 49°42' W 003°06'2112.8
2017-Jan-17 21:24N 49°28' W 003°29'5112.4
2017-Jan-17 17:19N 48°52' W 004°24'2 2.8
2017-Jan-17 16:33N 48°54' W 004°25'2 2.3
2017-Jan-17 15:33N 48°54' W 004°29'0 0.2
2017-Jan-17 14:33N 48°54' W 004°29'8 8.0
2017-Jan-17 13:33N 48°47' W 004°32'10 9.6
2017-Jan-17 12:34N 48°40' W 004°43'10 9.8
2017-Jan-17 11:34N 48°31' W 004°50'1010.2
2017-Jan-17 10:34N 48°21' W 004°49'10 9.7
2017-Jan-17 09:34N 48°21' W 004°34'4 4.2
2017-Jan-17 08:33N 48°23' W 004°29'0 0.0
2017-Jan-17 07:33N 48°23' W 004°29'0 0.0
2017-Jan-17 06:33N 48°23' W 004°29'0 0.0
2017-Jan-17 05:33N 48°23' W 004°29'0 0.0
2017-Jan-17 04:33N 48°23' W 004°29'0 0.0
2017-Jan-17 03:33N 48°23' W 004°29'0 0.0
2017-Jan-17 02:33N 48°23' W 004°29'0 0.0
2017-Jan-17 01:33N 48°23' W 004°29'0 0.0
2017-Jan-17 00:33N 48°23' W 004°29'0 0.0
2017-Jan-16 23:33N 48°23' W 004°29'0 0.0
2017-Jan-16 22:33N 48°23' W 004°29'0 0.0
2017-Jan-16 21:33N 48°23' W 004°29'0 0.0
2017-Jan-16 20:33N 48°23' W 004°29'0 0.0
2017-Jan-16 19:33N 48°23' W 004°29'0 0.0
2017-Jan-16 18:33N 48°23' W 004°29'0 0.0
2017-Jan-16 17:33N 48°23' W 004°29'0 0.0
2017-Jan-16 16:33N 48°23' W 004°29'0 0.0
2017-Jan-16 15:33N 48°23' W 004°29'0 0.0
2017-Jan-16 14:33N 48°23' W 004°29'0 0.0
2017-Jan-16 13:33N 48°23' W 004°29'0 0.0
2017-Jan-16 12:33N 48°23' W 004°29'0 0.0
2017-Jan-16 11:33N 48°23' W 004°29'0 0.0
2017-Jan-16 10:32N 48°23' W 004°29'0 0.0
2017-Jan-16 09:33N 48°23' W 004°29'0 0.0
2017-Jan-16 08:32N 48°23' W 004°29'0 0.0
2017-Jan-16 07:33N 48°23' W 004°29'0 0.0
2017-Jan-16 06:32N 48°23' W 004°29'0 0.0
2017-Jan-16 05:32N 48°23' W 004°29'0 0.0
2017-Jan-16 04:32N 48°23' W 004°29'0 0.0
2017-Jan-16 03:32N 48°23' W 004°29'0 0.0
2017-Jan-16 02:32N 48°23' W 004°29'0 0.0
2017-Jan-16 01:32N 48°23' W 004°29'0 0.0
2017-Jan-16 00:32N 48°23' W 004°29'0 0.0
2017-Jan-15 23:32N 48°23' W 004°29'0 0.0
2017-Jan-15 22:32N 48°23' W 004°29'0 0.0
2017-Jan-15 21:32N 48°23' W 004°29'0 0.0
2017-Jan-15 20:32N 48°23' W 004°29'0 0.0
2017-Jan-15 19:32N 48°23' W 004°29'0 0.0
2017-Jan-15 18:32N 48°23' W 004°29'0 0.0
2017-Jan-15 17:32N 48°23' W 004°29'0 0.0
2017-Jan-15 16:32N 48°23' W 004°29'0 0.0
2017-Jan-15 15:32N 48°23' W 004°29'0 0.0
2017-Jan-15 14:32N 48°23' W 004°29'0 0.0
2017-Jan-15 13:32N 48°23' W 004°29'0 0.0
2017-Jan-15 12:32N 48°23' W 004°29'0 0.0
2017-Jan-15 11:32N 48°23' W 004°29'0 0.0
2017-Jan-15 10:32N 48°23' W 004°29'0 0.0
2017-Jan-15 09:32N 48°23' W 004°29'0 0.0
2017-Jan-15 08:32N 48°23' W 004°29'0 0.0
2017-Jan-15 07:32N 48°23' W 004°29'0 0.0
2017-Jan-15 06:32N 48°23' W 004°29'0 0.0
2017-Jan-15 05:32N 48°23' W 004°29'0 0.0
2017-Jan-15 04:32N 48°23' W 004°29'0 0.0
2017-Jan-15 03:32N 48°23' W 004°29'0 0.0
2017-Jan-15 02:32N 48°23' W 004°29'0 0.0
2017-Jan-15 01:32N 48°23' W 004°29'0 0.0
2017-Jan-15 00:32N 48°23' W 004°29'0 0.0
2017-Jan-14 23:32N 48°23' W 004°29'0 0.0
2017-Jan-14 22:32N 48°23' W 004°29'0 0.0
2017-Jan-14 21:32N 48°23' W 004°29'0 0.0
2017-Jan-14 20:32N 48°23' W 004°29'0 0.0
2017-Jan-14 19:32N 48°23' W 004°29'0 0.0
2017-Jan-14 18:32N 48°23' W 004°29'0 0.0
2017-Jan-14 17:32N 48°23' W 004°29'0 0.0
2017-Jan-14 16:32N 48°23' W 004°29'0 0.0
2017-Jan-14 15:32N 48°23' W 004°29'0 0.0
2017-Jan-14 14:32N 48°23' W 004°29'0 0.0
2017-Jan-14 13:32N 48°23' W 004°29'0 0.0
2017-Jan-14 12:32N 48°23' W 004°29'0 0.0
2017-Jan-14 11:32N 48°23' W 004°29'0 0.0
2017-Jan-14 10:32N 48°23' W 004°29'0 0.0
2017-Jan-14 09:32N 48°23' W 004°29'0 0.0
2017-Jan-14 08:32N 48°23' W 004°29'0 0.0
2017-Jan-14 07:32N 48°23' W 004°29'0 0.0
2017-Jan-14 06:32N 48°23' W 004°29'0 0.0
2017-Jan-14 05:32N 48°23' W 004°29'0 0.0
2017-Jan-14 04:32N 48°23' W 004°29'0 0.0
2017-Jan-14 03:32N 48°23' W 004°29'0 0.0
2017-Jan-13 23:32N 48°23' W 004°29'0 0.0
2017-Jan-13 22:32N 48°23' W 004°29'0 0.0
2017-Jan-13 21:32N 48°23' W 004°29'0 0.0
2017-Jan-13 20:32N 48°23' W 004°29'0 0.0
2017-Jan-13 19:32N 48°23' W 004°29'0 0.0
2017-Jan-13 18:32N 48°23' W 004°29'0 0.0
2017-Jan-13 17:32N 48°23' W 004°29'0 0.0
2017-Jan-13 16:32N 48°23' W 004°29'0 0.0
2017-Jan-13 15:32N 48°23' W 004°29'0 0.0
2017-Jan-13 14:32N 48°23' W 004°29'0 0.0
2017-Jan-13 13:32N 48°23' W 004°29'  

Dump ship's entire track history